Terminal Aerodrome Forecast
Issued by NWS

Home | Current Version | Previous Version | Graphics & Text | Print | Product List | Glossary On
Versions: 1 2 3 4 5 6 7 8 9 10 11 12 13 14 15 16
724
FTUS41 KCLE 111138
TAFFDY
TAF
KFDY 111138Z 1112/1212 27008KT P6SM OVC060
     FM112300 24004KT P6SM SCT060 OVC100=

USA.gov is the U.S. government's official web portal to all federal, state and local government web resources and services.